createdAt,value
2022-11-28T00:01:26.516Z,99788.06
2022-11-28T00:03:53.684Z,99767.66
2022-11-28T00:06:20.793Z,99790.06
2022-11-28T00:08:48.150Z,99789.34
2022-11-28T00:11:17.268Z,99801.69
2022-11-28T00:13:44.902Z,99798.09
2022-11-28T00:16:21.509Z,99770.00
2022-11-28T00:18:49.725Z,99780.22
2022-11-28T00:21:17.862Z,99775.59
2022-11-28T00:23:45.983Z,99786.69
2022-11-28T00:26:24.468Z,99781.22
2022-11-28T00:28:51.536Z,99783.78
2022-11-28T00:31:22.524Z,99785.69
2022-11-28T00:33:49.592Z,99787.44
2022-11-28T00:36:16.780Z,99792.59
2022-11-28T00:38:43.984Z,99788.72
2022-11-28T00:41:16.959Z,99792.22
2022-11-28T00:43:44.907Z,99797.75
2022-11-28T00:46:13.533Z,99765.75
2022-11-28T00:48:41.034Z,99793.69
2022-11-28T00:51:11.079Z,99786.19
2022-11-28T00:53:40.580Z,99791.22
2022-11-28T00:56:08.029Z,99780.81
2022-11-28T00:58:38.050Z,99785.75
2022-11-28T01:01:18.951Z,99797.59
2022-11-28T01:03:47.194Z,99783.38
2022-11-28T01:06:20.169Z,99779.78
2022-11-28T01:08:46.867Z,99761.22
2022-11-28T01:11:13.976Z,99794.78
2022-11-28T01:13:41.056Z,99785.69
2022-11-28T01:16:08.845Z,99786.81
2022-11-28T01:18:35.897Z,99794.59
2022-11-28T01:21:02.515Z,99757.53
2022-11-28T01:23:29.144Z,99774.97
2022-11-28T01:25:55.850Z,99756.84
2022-11-28T01:28:22.636Z,99799.38
2022-11-28T01:30:49.442Z,99781.72
2022-11-28T01:33:16.247Z,99787.59
2022-11-28T01:35:42.949Z,99761.31
2022-11-28T01:38:09.549Z,99779.28
2022-11-28T01:40:36.179Z,99791.09
2022-11-28T01:43:02.781Z,99776.91
2022-11-28T01:45:35.017Z,99791.94
2022-11-28T01:48:03.980Z,99797.53
2022-11-28T01:50:33.153Z,99791.84
2022-11-28T01:53:04.785Z,99793.59
2022-11-28T01:55:35.717Z,99787.44
2022-11-28T01:58:02.356Z,99786.88
2022-11-28T02:00:29.196Z,99792.38
2022-11-28T02:03:10.565Z,99803.59
2022-11-28T02:05:37.578Z,99788.22
2022-11-28T02:08:04.496Z,99794.59
2022-11-28T02:10:53.851Z,99791.28
2022-11-28T02:13:40.994Z,99796.28
2022-11-28T02:16:19.925Z,99794.13
2022-11-28T02:19:08.626Z,99798.91
2022-11-28T02:21:52.172Z,99802.69
2022-11-28T02:24:22.004Z,99805.22
2022-11-28T02:27:33.623Z,99805.31
2022-11-28T02:30:02.921Z,99799.81
2022-11-28T02:32:50.957Z,99800.84
2022-11-28T02:35:33.500Z,99786.88
2022-11-28T02:38:06.987Z,99789.59
2022-11-28T02:40:52.442Z,99791.78
2022-11-28T02:43:37.466Z,99800.31
2022-11-28T02:46:16.806Z,99795.28
2022-11-28T02:48:58.602Z,99797.34
2022-11-28T02:51:37.984Z,99804.16
2022-11-28T02:54:08.066Z,99789.09
2022-11-28T02:56:34.912Z,99793.50
2022-11-28T02:59:01.874Z,99801.53
2022-11-28T03:01:36.977Z,99804.41
2022-11-28T03:04:12.985Z,99812.28
2022-11-28T03:06:51.680Z,99806.44
2022-11-28T03:09:49.241Z,99809.50
2022-11-28T03:12:36.053Z,99791.84
2022-11-28T03:15:06.403Z,99792.09
2022-11-28T03:17:33.213Z,99796.59
2022-11-28T03:20:43.999Z,99796.06
2022-11-28T03:23:21.440Z,99796.91
2022-11-28T03:26:26.460Z,99781.88
2022-11-28T03:29:00.737Z,99796.03
2022-11-28T03:31:49.692Z,99796.94
2022-11-28T03:34:20.502Z,99796.03
2022-11-28T03:36:53.975Z,99789.91
2022-11-28T03:39:24.570Z,99800.84
2022-11-28T03:41:59.868Z,99804.63
2022-11-28T03:44:30.846Z,99815.75
2022-11-28T03:47:01.089Z,99812.97
2022-11-28T03:49:33.750Z,99810.75
2022-11-28T03:52:07.218Z,99798.22
2022-11-28T03:55:09.305Z,99822.91
2022-11-28T03:57:46.305Z,99811.47
2022-11-28T04:00:14.317Z,99810.00
2022-11-28T04:02:57.536Z,99822.41
2022-11-28T04:05:26.835Z,99819.22
2022-11-28T04:07:59.677Z,99823.44
2022-11-28T04:10:45.205Z,99819.16
2022-11-28T04:13:14.882Z,99826.06
2022-11-28T04:15:59.904Z,99826.06
2022-11-28T04:18:55.684Z,99819.78
2022-11-28T04:21:51.187Z,99819.47
2022-11-28T04:24:30.102Z,99798.50
2022-11-28T04:27:05.092Z,99832.69
2022-11-28T04:29:42.892Z,99803.53
2022-11-28T04:32:12.252Z,99841.41
2022-11-28T04:34:43.508Z,99822.47
2022-11-28T04:37:14.485Z,99828.84
2022-11-28T04:39:46.076Z,99835.94
2022-11-28T04:42:20.852Z,99814.47
2022-11-28T04:44:51.753Z,99850.63
2022-11-28T04:47:18.943Z,99838.91
2022-11-28T04:49:45.765Z,99853.69
2022-11-28T04:52:26.372Z,99839.44
2022-11-28T04:55:00.664Z,99855.06
2022-11-28T04:57:33.770Z,99859.84
2022-11-28T05:00:04.743Z,99866.47
2022-11-28T05:02:32.505Z,99834.00
2022-11-28T05:04:59.838Z,99859.19
2022-11-28T05:07:26.806Z,99865.84
2022-11-28T05:09:53.603Z,99859.06
2022-11-28T05:12:20.482Z,99858.22
2022-11-28T05:14:47.330Z,99863.13
2022-11-28T05:17:13.993Z,99848.66
2022-11-28T05:19:40.645Z,99847.88
2022-11-28T05:22:07.331Z,99859.25
2022-11-28T05:24:34.272Z,99871.94
2022-11-28T05:27:01.069Z,99869.38
2022-11-28T05:29:27.820Z,99871.09
2022-11-28T05:31:54.803Z,99865.91
2022-11-28T05:34:22.042Z,99884.66
2022-11-28T05:36:56.533Z,99899.63
2022-11-28T05:39:25.894Z,99888.19
2022-11-28T05:41:57.174Z,99898.84
2022-11-28T05:44:26.974Z,99879.41
2022-11-28T05:46:54.288Z,99895.16
2022-11-28T05:49:25.549Z,99904.97
2022-11-28T05:51:52.281Z,99867.88
2022-11-28T05:54:19.001Z,99912.25
2022-11-28T05:56:45.778Z,99904.47
2022-11-28T05:59:13.801Z,99919.50
2022-11-28T06:01:40.667Z,99917.06
2022-11-28T06:04:07.394Z,99919.91
2022-11-28T06:06:35.718Z,99931.13
2022-11-28T06:09:03.389Z,99917.78
2022-11-28T06:11:31.675Z,99915.38
2022-11-28T06:13:58.324Z,99927.19
2022-11-28T06:16:27.695Z,99943.75
2022-11-28T06:18:55.816Z,99939.66
2022-11-28T06:21:23.453Z,99952.31
2022-11-28T06:23:50.217Z,99958.53
2022-11-28T06:26:19.840Z,99963.59
2022-11-28T06:28:48.025Z,99952.72
2022-11-28T06:31:28.463Z,99948.88
2022-11-28T06:33:55.974Z,99955.91
2022-11-28T06:36:22.821Z,99928.38
2022-11-28T06:38:49.566Z,99955.91
2022-11-28T06:41:19.575Z,99950.53
2022-11-28T06:43:46.577Z,99959.63
2022-11-28T06:46:16.402Z,99950.28
2022-11-28T06:48:44.132Z,99956.53
2022-11-28T06:51:11.682Z,99953.69
2022-11-28T06:53:38.741Z,99966.41
2022-11-28T06:56:07.448Z,99948.72
2022-11-28T06:58:35.016Z,99969.34
2022-11-28T07:01:11.950Z,99969.78
2022-11-28T07:03:39.589Z,99964.91
2022-11-28T07:06:07.296Z,99963.94
2022-11-28T07:08:34.894Z,99979.41
2022-11-28T07:11:11.969Z,99977.88
2022-11-28T07:13:39.807Z,99968.72
2022-11-28T07:16:07.538Z,99943.88
2022-11-28T07:18:34.937Z,99981.53
2022-11-28T07:21:01.975Z,99991.06
2022-11-28T07:23:28.588Z,99999.78
2022-11-28T07:26:03.622Z,100005.59
2022-11-28T07:28:31.575Z,99988.00
2022-11-28T07:31:11.083Z,100004.38
2022-11-28T07:33:39.622Z,100013.59
2022-11-28T07:36:10.865Z,100008.84
2022-11-28T07:38:37.534Z,100011.34
2022-11-28T07:41:09.679Z,100003.69
2022-11-28T07:43:36.833Z,100012.59
2022-11-28T07:46:06.752Z,100021.25
2022-11-28T07:48:34.363Z,100026.38
2022-11-28T07:51:06.189Z,100034.28
2022-11-28T07:53:32.826Z,99992.69
2022-11-28T07:56:07.858Z,100043.50
2022-11-28T07:58:36.113Z,100011.31
2022-11-28T08:01:13.474Z,100048.47
2022-11-28T08:03:40.639Z,100031.25
2022-11-28T08:06:08.542Z,100047.28
2022-11-28T08:08:35.892Z,100045.88
2022-11-28T08:11:04.861Z,100051.06
2022-11-28T08:13:31.648Z,99983.16
2022-11-28T08:15:58.541Z,100056.56
2022-11-28T08:18:25.278Z,100055.53
2022-11-28T08:20:51.964Z,100041.09
2022-11-28T08:23:18.580Z,100053.69
2022-11-28T08:25:45.397Z,100014.34
2022-11-28T08:28:12.036Z,100023.94
2022-11-28T08:30:39.111Z,100015.88
2022-11-28T08:33:05.828Z,100024.63
2022-11-28T08:35:32.519Z,100035.53
2022-11-28T08:38:02.016Z,100034.00
2022-11-28T08:40:29.231Z,100017.97
2022-11-28T08:42:55.936Z,100062.75
2022-11-28T08:45:22.662Z,100056.56
2022-11-28T08:47:49.458Z,100016.81
2022-11-28T08:50:16.527Z,100021.53
2022-11-28T08:52:43.183Z,100068.34
2022-11-28T08:55:10.145Z,100025.63
2022-11-28T08:57:36.924Z,100034.06
2022-11-28T09:00:04.480Z,100053.34
2022-11-28T09:02:31.150Z,100029.19
2022-11-28T09:04:57.795Z,100059.91
2022-11-28T09:07:24.625Z,100045.84
2022-11-28T09:09:51.365Z,100058.47
2022-11-28T09:12:18.021Z,100084.22
2022-11-28T09:14:44.908Z,100084.56
2022-11-28T09:17:11.830Z,100045.25
2022-11-28T09:19:39.136Z,100099.50
2022-11-28T09:22:05.896Z,100076.78
2022-11-28T09:24:32.565Z,100052.16
2022-11-28T09:26:59.327Z,100112.53
2022-11-28T09:29:26.883Z,100112.53
2022-11-28T09:31:53.667Z,100086.09
2022-11-28T09:34:20.480Z,100111.63
2022-11-28T09:36:47.225Z,100142.22
2022-11-28T09:39:14.026Z,100122.75
2022-11-28T09:41:53.102Z,100109.66
2022-11-28T09:44:25.200Z,100113.56
2022-11-28T09:46:58.514Z,100118.97
2022-11-28T09:49:41.083Z,100087.84
2022-11-28T09:52:35.790Z,100134.25
2022-11-28T09:55:18.546Z,100126.47
2022-11-28T09:57:51.027Z,100082.03
2022-11-28T10:00:26.909Z,100142.09
2022-11-28T10:03:14.682Z,100120.97
2022-11-28T10:06:00.741Z,100144.59
2022-11-28T10:08:46.030Z,100153.03
2022-11-28T10:11:39.032Z,100145.88
2022-11-28T10:14:30.689Z,100138.75
2022-11-28T10:17:34.646Z,100154.94
2022-11-28T10:20:05.218Z,100147.47
2022-11-28T10:22:40.611Z,100147.41
2022-11-28T10:25:17.281Z,100134.66
2022-11-28T10:27:44.499Z,100080.72
2022-11-28T10:30:34.729Z,100153.38
2022-11-28T10:33:14.156Z,100103.06
2022-11-28T10:35:53.905Z,100098.13
2022-11-28T10:38:26.663Z,100126.44
2022-11-28T10:41:00.219Z,100150.03
2022-11-28T10:44:24.153Z,100135.66
2022-11-28T10:46:51.445Z,100151.06
2022-11-28T10:49:34.269Z,100117.50
2022-11-28T10:52:21.821Z,100151.31
2022-11-28T10:55:15.513Z,100148.34
2022-11-28T10:57:56.056Z,100148.59
2022-11-28T11:00:23.136Z,100154.88
2022-11-28T11:02:57.711Z,100148.72
2022-11-28T11:05:26.190Z,100141.00
2022-11-28T11:07:59.479Z,100157.28
2022-11-28T11:10:42.187Z,100142.28
2022-11-28T11:13:16.398Z,100132.59
2022-11-28T11:15:46.551Z,100112.47
2022-11-28T11:18:25.880Z,100171.97
2022-11-28T11:20:52.808Z,100169.34
2022-11-28T11:23:22.275Z,100184.75
2022-11-28T11:25:58.388Z,100153.91
2022-11-28T11:28:46.366Z,100182.47
2022-11-28T11:31:24.781Z,100181.88
2022-11-28T11:34:01.063Z,100191.16
2022-11-28T11:36:34.302Z,100186.88
2022-11-28T11:39:10.846Z,100177.72
2022-11-28T11:41:40.091Z,100164.50
2022-11-28T11:44:15.806Z,100182.06
2022-11-28T11:47:06.826Z,100150.66
2022-11-28T11:49:33.567Z,100195.84
2022-11-28T11:52:23.016Z,100147.47
2022-11-28T11:54:58.938Z,100201.34
2022-11-28T11:57:39.542Z,100209.81
2022-11-28T12:00:07.152Z,100209.75
2022-11-28T12:02:37.240Z,100215.34
2022-11-28T12:05:16.933Z,100198.47
2022-11-28T12:07:56.069Z,100215.06
2022-11-28T12:10:26.699Z,100211.22
2022-11-28T12:12:53.880Z,100185.91
2022-11-28T12:15:51.179Z,100218.47
2022-11-28T12:18:23.780Z,100218.69
2022-11-28T12:20:59.741Z,100227.34
2022-11-28T12:23:38.418Z,100230.19
2022-11-28T12:26:28.663Z,100208.13
2022-11-28T12:29:24.174Z,100197.50
2022-11-28T12:32:12.635Z,100238.13
2022-11-28T12:34:58.134Z,100242.78
2022-11-28T12:41:03.933Z,100243.53
2022-11-28T12:44:25.194Z,100255.41
2022-11-28T12:47:30.552Z,100260.16
2022-11-28T12:50:20.343Z,100253.63
2022-11-28T12:52:56.432Z,100269.13
2022-11-28T12:55:26.357Z,100274.59
2022-11-28T12:58:12.193Z,100256.16
2022-11-28T13:01:08.206Z,100233.13
2022-11-28T13:03:35.112Z,100274.44
2022-11-28T13:06:08.017Z,100277.84
2022-11-28T13:08:48.198Z,100265.81
2022-11-28T13:11:18.713Z,100285.09
2022-11-28T13:14:09.836Z,100278.13
2022-11-28T13:17:11.366Z,100292.44
2022-11-28T13:19:51.709Z,100294.22
2022-11-28T13:22:29.037Z,100303.56
2022-11-28T13:25:17.374Z,100305.03
2022-11-28T13:27:54.918Z,100273.47
2022-11-28T13:30:31.301Z,100316.50
2022-11-28T13:33:24.224Z,100317.44
2022-11-28T13:35:52.398Z,100318.88
2022-11-28T13:38:36.210Z,100318.09
2022-11-28T13:41:28.807Z,100321.22
2022-11-28T13:44:15.635Z,100297.53
2022-11-28T13:46:44.773Z,100314.72
2022-11-28T13:49:25.709Z,100329.72
2022-11-28T13:52:17.663Z,100331.00
2022-11-28T13:54:51.749Z,100329.75
2022-11-28T13:57:35.908Z,100331.16
2022-11-28T14:00:22.880Z,100339.72
2022-11-28T14:03:00.256Z,100346.50
2022-11-28T14:05:41.724Z,100346.16
2022-11-28T14:08:09.350Z,100337.72
2022-11-28T14:10:48.743Z,100341.44
2022-11-28T14:13:40.860Z,100341.69
2022-11-28T14:16:45.413Z,100347.16
2022-11-28T14:19:25.607Z,100352.66
2022-11-28T14:22:04.546Z,100353.66
2022-11-28T14:24:52.585Z,100364.22
2022-11-28T14:27:31.591Z,100360.28
2022-11-28T14:29:59.587Z,100388.97
2022-11-28T14:32:41.604Z,100382.31
2022-11-28T14:35:55.802Z,100381.97
2022-11-28T14:38:42.535Z,100387.16
2022-11-28T14:41:15.269Z,100360.00
2022-11-28T14:43:46.370Z,100389.91
2022-11-28T14:46:16.102Z,100397.34
2022-11-28T14:49:02.747Z,100379.47
2022-11-28T14:51:47.724Z,100408.38
2022-11-28T14:54:23.355Z,100411.88
2022-11-28T14:56:55.288Z,100411.38
2022-11-28T14:59:31.476Z,100365.06
2022-11-28T15:02:13.247Z,100424.06
2022-11-28T15:05:13.866Z,100428.56
2022-11-28T15:07:49.635Z,100433.34
2022-11-28T15:10:41.381Z,100431.13
2022-11-28T15:13:48.162Z,100397.44
2022-11-28T15:16:17.461Z,100412.13
2022-11-28T15:18:50.724Z,100441.28
2022-11-28T15:21:18.221Z,100448.25
2022-11-28T15:23:46.935Z,100421.50
2022-11-28T15:26:28.450Z,100450.31
2022-11-28T15:29:26.711Z,100463.03
2022-11-28T15:31:55.772Z,100462.81
2022-11-28T15:34:31.811Z,100418.19
2022-11-28T15:37:01.061Z,100480.66
2022-11-28T15:39:35.196Z,100435.53
2022-11-28T15:42:04.899Z,100450.50
2022-11-28T15:44:31.816Z,100447.31
2022-11-28T15:46:58.784Z,100455.19
2022-11-28T15:49:31.977Z,100497.00
2022-11-28T15:52:02.785Z,100498.50
2022-11-28T15:54:41.265Z,100502.66
2022-11-28T15:57:28.512Z,100509.03
2022-11-28T15:59:56.607Z,100468.16
2022-11-28T16:02:31.894Z,100501.50
2022-11-28T16:05:08.908Z,100485.59
2022-11-28T16:07:41.393Z,100518.00
2022-11-28T16:10:17.565Z,100523.59
2022-11-28T16:12:44.845Z,100488.84
2022-11-28T16:15:18.397Z,100532.59
2022-11-28T16:17:45.183Z,100485.81
2022-11-28T16:20:25.154Z,100500.34
2022-11-28T16:22:59.579Z,100497.81
2022-11-28T16:25:27.459Z,100527.25
2022-11-28T16:27:57.337Z,100464.38
2022-11-28T16:30:48.378Z,100521.25
2022-11-28T16:33:38.189Z,100529.03
2022-11-28T16:36:19.435Z,100517.25
2022-11-28T16:38:48.346Z,100506.28
2022-11-28T16:41:25.758Z,100510.03
2022-11-28T16:44:00.337Z,100532.44
2022-11-28T16:46:35.821Z,100512.94
2022-11-28T16:49:03.443Z,100495.94
2022-11-28T16:51:33.647Z,100506.19
2022-11-28T16:54:21.286Z,100548.88
2022-11-28T16:56:48.069Z,100546.31
2022-11-28T16:59:20.341Z,100554.28
2022-11-28T17:01:51.853Z,100548.50
2022-11-28T17:04:25.118Z,100560.66
2022-11-28T17:06:52.813Z,100564.63
2022-11-28T17:09:19.964Z,100579.00
2022-11-28T17:12:25.078Z,100563.63
2022-11-28T17:14:52.014Z,100570.81
2022-11-28T17:17:20.604Z,100586.50
2022-11-28T17:19:47.496Z,100508.94
2022-11-28T17:22:19.898Z,100514.84
2022-11-28T17:24:48.036Z,100529.44
2022-11-28T17:27:15.482Z,100535.78
2022-11-28T17:29:42.787Z,100521.22
2022-11-28T17:32:14.003Z,100570.84
2022-11-28T17:34:42.337Z,100583.72
2022-11-28T17:37:10.165Z,100565.81
2022-11-28T17:39:36.913Z,100580.41
2022-11-28T17:42:04.714Z,100583.94
2022-11-28T17:44:36.431Z,100533.13
2022-11-28T17:47:03.945Z,100572.50
2022-11-28T17:49:31.189Z,100545.00
2022-11-28T17:51:58.346Z,100586.06
2022-11-28T17:54:26.707Z,100548.78
2022-11-28T17:56:54.512Z,100538.44
2022-11-28T17:59:23.129Z,100571.13
2022-11-28T18:01:50.200Z,100580.44
2022-11-28T18:04:17.293Z,100610.59
2022-11-28T18:06:45.951Z,100617.47
2022-11-28T18:09:13.844Z,100592.81
2022-11-28T18:11:41.624Z,100616.00
2022-11-28T18:14:08.921Z,100599.25
2022-11-28T18:16:36.386Z,100588.56
2022-11-28T18:19:04.296Z,100599.88
2022-11-28T18:21:31.986Z,100624.25
2022-11-28T18:23:58.634Z,100600.69
2022-11-28T18:26:26.618Z,100629.25
2022-11-28T18:28:54.120Z,100597.63
2022-11-28T18:31:24.893Z,100601.09
2022-11-28T18:33:57.410Z,100623.66
2022-11-28T18:36:29.214Z,100610.94
2022-11-28T18:38:57.935Z,100630.69
2022-11-28T18:41:24.744Z,100649.63
2022-11-28T18:44:02.592Z,100594.00
2022-11-28T18:46:30.318Z,100618.94
2022-11-28T18:48:57.604Z,100667.66
2022-11-28T18:51:26.960Z,100637.44
2022-11-28T18:53:56.959Z,100673.34
2022-11-28T18:56:25.488Z,100675.03
2022-11-28T18:58:53.742Z,100645.34
2022-11-28T19:01:25.112Z,100689.84
2022-11-28T19:03:54.405Z,100693.34
2022-11-28T19:06:22.442Z,100683.06
2022-11-28T19:08:54.166Z,100651.41
2022-11-28T19:11:21.200Z,100667.00
2022-11-28T19:13:48.862Z,100651.78
2022-11-28T19:16:21.258Z,100714.38
2022-11-28T19:18:49.137Z,100671.75
2022-11-28T19:21:18.329Z,100688.09
2022-11-28T19:23:47.241Z,100705.25
2022-11-28T19:26:16.673Z,100702.50
2022-11-28T19:28:43.733Z,100652.81
2022-11-28T19:31:16.381Z,100718.72
2022-11-28T19:33:43.674Z,100655.34
2022-11-28T19:36:12.868Z,100701.91
2022-11-28T19:38:40.593Z,100730.44
2022-11-28T19:41:09.388Z,100735.94
2022-11-28T19:43:36.506Z,100711.22
2022-11-28T19:46:03.335Z,100682.91
2022-11-28T19:48:32.355Z,100704.28
2022-11-28T19:50:59.170Z,100698.47
2022-11-28T19:53:26.273Z,100697.16
2022-11-28T19:55:54.109Z,100703.28
2022-11-28T19:58:21.521Z,100680.53
2022-11-28T20:00:48.422Z,100697.84
2022-11-28T20:03:15.125Z,100747.44
2022-11-28T20:05:42.406Z,100762.00
2022-11-28T20:08:09.148Z,100721.91
2022-11-28T20:10:40.124Z,100730.94
2022-11-28T20:13:07.007Z,100760.91
2022-11-28T20:15:37.272Z,100758.50
2022-11-28T20:18:03.995Z,100727.69
2022-11-28T20:20:30.783Z,100774.78
2022-11-28T20:22:57.649Z,100759.44
2022-11-28T20:25:24.258Z,100762.72
2022-11-28T20:27:51.387Z,100766.38
2022-11-28T20:30:18.676Z,100780.16
2022-11-28T20:32:45.428Z,100773.22
2022-11-28T20:35:12.285Z,100763.00
2022-11-28T20:37:39.395Z,100760.94
2022-11-28T20:40:07.086Z,100782.41
2022-11-28T20:42:39.357Z,100768.78
2022-11-28T20:45:07.212Z,100752.44
2022-11-28T20:47:34.902Z,100785.13
2022-11-28T20:50:02.427Z,100793.63
2022-11-28T20:52:29.185Z,100799.63
2022-11-28T20:54:56.006Z,100786.78
2022-11-28T20:57:22.785Z,100785.31
2022-11-28T20:59:49.596Z,100775.81
2022-11-28T21:02:16.333Z,100772.25
2022-11-28T21:04:43.049Z,100785.09
2022-11-28T21:07:09.706Z,100787.56
2022-11-28T21:09:36.361Z,100784.13
2022-11-28T21:12:03.007Z,100779.16
2022-11-28T21:14:29.706Z,100798.00
2022-11-28T21:16:57.710Z,100815.31
2022-11-28T21:19:24.788Z,100813.19
2022-11-28T21:21:51.405Z,100801.94
2022-11-28T21:24:18.227Z,100811.47
2022-11-28T21:26:51.078Z,100755.78
2022-11-28T21:29:20.067Z,100821.00
2022-11-28T21:31:47.049Z,100820.22
2022-11-28T21:34:15.687Z,100813.41
2022-11-28T21:36:43.604Z,100820.47
2022-11-28T21:39:14.269Z,100814.47
2022-11-28T21:41:40.945Z,100816.75
2022-11-28T21:44:07.809Z,100816.03
2022-11-28T21:46:34.561Z,100811.94
2022-11-28T21:49:01.980Z,100805.22
2022-11-28T21:51:28.923Z,100819.03
2022-11-28T21:53:57.766Z,100829.38
2022-11-28T21:56:25.054Z,100839.97
2022-11-28T21:58:52.236Z,100835.88
2022-11-28T22:01:20.425Z,100848.09
2022-11-28T22:03:47.457Z,100837.81
2022-11-28T22:06:21.395Z,100854.22
2022-11-28T22:08:48.827Z,100857.75
2022-11-28T22:11:16.082Z,100860.31
2022-11-28T22:13:45.442Z,100860.38
2022-11-28T22:16:24.929Z,100868.25
2022-11-28T22:18:53.863Z,100858.81
2022-11-28T22:21:50.576Z,100869.16
2022-11-28T22:24:08.799Z,100866.50
2022-11-28T22:26:35.485Z,100876.84
2022-11-28T22:29:04.160Z,100875.19
2022-11-28T22:31:32.131Z,100879.56
2022-11-28T22:33:59.299Z,100855.53
2022-11-28T22:36:26.054Z,100881.28
2022-11-28T22:38:57.537Z,100877.88
2022-11-28T22:41:28.829Z,100894.25
2022-11-28T22:43:57.984Z,100888.25
2022-11-28T22:46:24.945Z,100888.28
2022-11-28T22:48:52.105Z,100861.66
2022-11-28T22:51:25.053Z,100867.72
2022-11-28T22:53:59.744Z,100900.38
2022-11-28T22:56:27.922Z,100902.16
2022-11-28T22:58:54.956Z,100892.78
2022-11-28T23:01:24.425Z,100910.84
2022-11-28T23:03:52.045Z,100897.91
2022-11-28T23:06:22.274Z,100900.41
2022-11-28T23:08:49.866Z,100892.66
2022-11-28T23:11:19.853Z,100907.25
2022-11-28T23:13:50.644Z,100916.69
2022-11-28T23:16:19.284Z,100915.81
2022-11-28T23:18:47.968Z,100914.94
2022-11-28T23:21:15.547Z,100910.66
2022-11-28T23:23:44.192Z,100915.00
2022-11-28T23:26:13.589Z,100909.91
2022-11-28T23:28:40.971Z,100920.22
2022-11-28T23:31:14.648Z,100925.31
2022-11-28T23:33:42.084Z,100902.16
2022-11-28T23:36:21.424Z,100921.88
2022-11-28T23:38:50.461Z,100920.09
2022-11-28T23:41:17.483Z,100921.00
2022-11-28T23:43:44.558Z,100916.69
2022-11-28T23:46:12.503Z,100926.22
2022-11-28T23:48:39.567Z,100935.69
2022-11-28T23:51:07.018Z,100937.44
2022-11-28T23:53:34.438Z,100916.78
2022-11-28T23:56:06.829Z,100929.72
2022-11-28T23:58:36.409Z,100938.25
